Time;durP1;ratioP1;P1;durP2;ratioP2;P2;SDS_P1;SDS_P2;PMS_P1;PMS_P2;Temp;Humidity;BMP_temperature;BMP_pressure;BME280_temperature;BME280_humidity;BME280_pressure;Samples;Min_cycle;Max_cycle;Signal;HPM_P1;HPM_P2
2021/12/05 00:17:26;;;;;;;15.18;5.10;;;3.70;99.90;;;;;;5116164;28;20051;-78
2021/12/05 00:24:44;;;;;;;13.52;4.50;;;3.80;99.90;;;;;;5115009;28;20425;-78
2021/12/05 00:27:18;;;;;;;16.20;5.30;;;3.70;99.90;;;;;;5114208;28;20135;-78
2021/12/05 00:35:56;;;;;;;21.05;5.63;;;3.80;99.90;;;;;;5113717;28;20080;-78
2021/12/05 00:46:26;;;;;;;20.42;5.30;;;3.80;99.90;;;;;;5114680;28;20055;-78
2021/12/05 01:05:38;;;;;;;20.52;4.75;;;3.90;99.90;;;;;;5114395;28;20112;-78
2021/12/05 01:15:04;;;;;;;13.32;4.90;;;3.90;99.90;;;;;;5113947;28;20517;-79
2021/12/05 01:17:46;;;;;;;17.33;5.13;;;4.00;99.90;;;;;;5113014;28;20470;-78
2021/12/05 01:20:16;;;;;;;21.77;5.15;;;3.90;99.90;;;;;;5113162;28;20104;-78
2021/12/05 01:22:49;;;;;;;20.48;5.00;;;3.90;99.90;;;;;;5113750;28;20090;-79
2021/12/05 01:38:18;;;;;;;22.15;6.28;;;3.90;99.90;;;;;;5112067;28;20089;-79
2021/12/05 01:49:43;;;;;;;17.17;5.50;;;4.60;99.90;;;;;;5114330;28;20048;-78
2021/12/05 01:52:10;;;;;;;21.05;6.80;;;3.90;99.90;;;;;;5103889;28;20079;-79
2021/12/05 02:40:44;;;;;;;25.67;6.47;;;4.20;99.90;;;;;;5100226;28;20044;-79
2021/12/05 02:43:13;;;;;;;17.63;6.13;;;4.20;99.90;;;;;;5117911;28;20475;-79
2021/12/05 02:45:44;;;;;;;15.30;6.25;;;4.70;99.90;;;;;;5117865;28;20083;-78
2021/12/05 02:48:10;;;;;;;18.85;5.78;;;4.10;99.90;;;;;;5117373;28;20047;-78
2021/12/05 02:50:38;;;;;;;17.88;6.97;;;4.20;99.90;;;;;;5117726;27;20044;-78
2021/12/05 02:53:15;;;;;;;19.55;6.97;;;4.10;99.90;;;;;;5116057;28;20493;-78
2021/12/05 02:55:44;;;;;;;27.08;7.32;;;4.20;99.90;;;;;;5116850;28;20494;-78
2021/12/05 02:58:28;;;;;;;24.45;6.93;;;4.10;99.90;;;;;;5117913;28;20044;-78
2021/12/05 03:03:28;;;;;;;18.27;7.07;;;4.10;99.90;;;;;;5116442;28;20475;-78
2021/12/05 03:06:12;;;;;;;20.02;7.45;;;4.00;99.90;;;;;;5117626;28;20047;-79
2021/12/05 03:08:38;;;;;;;22.40;7.88;;;4.00;99.90;;;;;;5115192;28;20054;-78
2021/12/05 03:11:05;;;;;;;26.60;8.75;;;4.00;99.90;;;;;;5117541;28;20035;-79
2021/12/05 03:13:40;;;;;;;23.63;8.93;;;4.00;99.90;;;;;;5116167;28;20043;-79
2021/12/05 03:16:05;;;;;;;;;;;4.00;99.90;;;;;;5115530;28;20047;-78
2021/12/05 03:18:31;;;;;;;26.42;9.05;;;4.00;99.90;;;;;;5116457;28;19920;-79
2021/12/05 03:20:58;;;;;;;20.42;7.75;;;4.20;99.90;;;;;;5116287;28;20450;-79
2021/12/05 03:23:25;;;;;;;32.58;9.50;;;4.00;99.90;;;;;;5114695;28;20066;-79
2021/12/05 03:25:52;;;;;;;32.97;10.45;;;4.00;99.90;;;;;;5117086;28;20554;-78
2021/12/05 03:28:17;;;;;;;26.27;9.65;;;4.00;99.90;;;;;;5117497;27;20087;-79
2021/12/05 03:30:45;;;;;;;27.88;9.75;;;4.00;99.90;;;;;;5116604;28;20080;-79
2021/12/05 03:33:11;;;;;;;27.42;9.93;;;4.10;99.90;;;;;;5115852;28;20126;-79
2021/12/05 03:35:37;;;;;;;28.33;9.20;;;4.20;99.90;;;;;;5132822;27;20098;-79
2021/12/05 03:38:03;;;;;;;39.22;10.75;;;4.00;99.90;;;;;;5114825;28;20093;-79
2021/12/05 03:40:32;;;;;;;33.70;12.18;;;4.00;99.90;;;;;;5116933;28;20032;-79
2021/12/05 03:43:00;;;;;;;25.75;10.25;;;4.10;99.90;;;;;;5115625;28;20044;-78
2021/12/05 03:45:31;;;;;;;23.98;9.93;;;4.00;99.90;;;;;;5114828;28;20039;-78
2021/12/05 03:47:57;;;;;;;29.80;10.60;;;4.00;99.90;;;;;;5115521;28;20051;-79
2021/12/05 03:50:24;;;;;;;35.35;10.35;;;4.00;99.90;;;;;;5114827;28;20061;-79
2021/12/05 03:52:51;;;;;;;38.55;11.90;;;4.00;99.90;;;;;;5113685;28;20459;-78
2021/12/05 03:55:17;;;;;;;40.65;11.75;;;3.90;99.90;;;;;;5115129;28;20047;-78
2021/12/05 03:57:43;;;;;;;32.97;11.82;;;3.90;99.90;;;;;;5114426;28;20490;-78
2021/12/05 04:00:14;;;;;;;47.58;11.82;;;3.90;99.90;;;;;;5115143;28;20054;-78
2021/12/05 04:02:40;;;;;;;39.35;12.20;;;3.90;99.90;;;;;;5116391;28;20116;-78
2021/12/05 04:05:07;;;;;;;34.42;12.25;;;3.90;99.90;;;;;;5114256;28;20047;-78
2021/12/05 04:07:32;;;;;;;42.72;13.80;;;3.90;99.90;;;;;;5115143;28;20055;-79
2021/12/05 04:09:58;;;;;;;37.10;13.13;;;4.00;99.90;;;;;;5116308;28;20040;-79
2021/12/05 04:12:24;;;;;;;28.85;11.60;;;4.00;99.90;;;;;;5115489;28;20086;-78
2021/12/05 04:14:54;;;;;;;32.35;12.18;;;3.90;99.90;;;;;;5116265;28;20039;-79
2021/12/05 04:17:21;;;;;;;44.90;13.10;;;3.80;99.90;;;;;;5114865;28;20058;-79
2021/12/05 04:19:47;;;;;;;33.00;11.95;;;3.90;99.90;;;;;;5115272;28;20052;-79
2021/12/05 04:22:13;;;;;;;30.63;12.25;;;3.80;99.90;;;;;;5114307;28;20047;-79
2021/12/05 04:24:40;;;;;;;35.63;12.63;;;3.80;99.90;;;;;;5115060;28;20108;-78
2021/12/05 04:27:07;;;;;;;30.67;10.90;;;3.80;99.90;;;;;;5113829;28;20050;-79
2021/12/05 04:29:34;;;;;;;30.15;12.25;;;3.80;99.90;;;;;;5114639;28;20051;-78
2021/12/05 04:32:00;;;;;;;44.72;13.02;;;3.70;99.90;;;;;;5114341;28;20097;-78
2021/12/05 04:34:26;;;;;;;43.90;11.35;;;3.70;99.90;;;;;;5113806;28;20051;-78
2021/12/05 04:36:57;;;;;;;41.40;13.15;;;3.70;99.90;;;;;;5114570;28;20053;-79
2021/12/05 04:39:26;;;;;;;37.63;11.57;;;3.70;99.90;;;;;;5114090;28;20044;-78
2021/12/05 04:41:52;;;;;;;37.17;11.05;;;3.60;99.90;;;;;;5115831;28;20047;-79
2021/12/05 04:44:20;;;;;;;37.25;11.75;;;3.60;99.90;;;;;;5115755;28;20050;-78
2021/12/05 04:46:46;;;;;;;30.35;11.63;;;3.60;99.90;;;;;;5114994;28;20527;-78
2021/12/05 04:49:12;;;;;;;33.20;12.95;;;3.60;99.90;;;;;;5114318;28;20567;-78
2021/12/05 04:51:40;;;;;;;30.08;11.50;;;3.70;99.90;;;;;;5115087;28;20487;-78
2021/12/05 04:54:07;;;;;;;48.35;12.52;;;3.60;99.90;;;;;;5113551;28;20131;-78
2021/12/05 04:56:34;;;;;;;31.33;11.05;;;3.60;99.90;;;;;;5115422;28;20058;-78
2021/12/05 04:59:01;;;;;;;36.75;11.52;;;3.60;99.90;;;;;;5114025;28;20104;-78
2021/12/05 05:01:27;;;;;;;40.25;11.63;;;3.60;99.90;;;;;;5114318;28;20518;-78
2021/12/05 05:03:54;;;;;;;29.20;10.25;;;3.60;99.90;;;;;;5113762;28;20044;-78
2021/12/05 05:06:20;;;;;;;37.30;14.45;;;3.70;99.90;;;;;;5114249;28;20368;-78
2021/12/05 05:08:50;;;;;;;41.95;11.48;;;3.60;99.90;;;;;;5113209;28;20116;-78
2021/12/05 05:11:18;;;;;;;29.75;11.13;;;3.70;99.90;;;;;;5113619;28;20051;-79
2021/12/05 05:13:45;;;;;;;31.50;10.57;;;3.90;99.90;;;;;;5113698;28;20086;-78
2021/12/05 05:16:14;;;;;;;39.95;11.48;;;3.50;99.90;;;;;;5114343;28;20044;-78
2021/12/05 05:19:16;;;;;;;42.35;11.32;;;4.50;99.90;;;;;;5113715;28;20051;-78
2021/12/05 05:21:48;;;;;;;31.17;10.30;;;4.30;99.90;;;;;;5110248;28;20402;-78
2021/12/05 05:40:22;;;;;;;27.45;10.00;;;3.20;99.90;;;;;;5113113;28;20104;-79
2021/12/05 05:50:36;;;;;;;30.33;10.02;;;4.20;99.90;;;;;;5112291;28;20406;-79
2021/12/05 05:53:03;;;;;;;38.67;10.30;;;3.10;99.90;;;;;;5112885;28;20126;-79
2021/12/05 05:55:28;;;;;;;22.27;9.40;;;3.10;99.90;;;;;;5112972;28;20050;-79
2021/12/05 06:00:33;;;;;;;28.23;9.73;;;3.70;99.90;;;;;;5112957;28;20130;-79
2021/12/05 06:06:12;;;;;;;27.02;8.88;;;3.10;99.90;;;;;;5053967;28;20052;-79
2021/12/05 06:08:40;;;;;;;33.22;9.48;;;3.50;99.90;;;;;;5070991;28;20049;-79
2021/12/05 06:11:12;;;;;;;31.83;9.50;;;3.10;99.90;;;;;;5083274;28;20063;-79
2021/12/05 06:13:39;;;;;;;31.25;10.60;;;3.10;99.90;;;;;;5114100;28;20405;-79
2021/12/05 06:16:07;;;;;;;34.95;8.55;;;3.10;99.90;;;;;;5113623;28;20054;-79
2021/12/05 06:18:33;;;;;;;26.92;7.60;;;3.10;99.90;;;;;;5111988;28;20047;-79
2021/12/05 06:21:01;;;;;;;32.33;9.35;;;3.10;99.90;;;;;;5114106;28;20055;-78
2021/12/05 06:23:27;;;;;;;29.02;9.10;;;3.10;99.90;;;;;;5113658;28;20051;-78
2021/12/05 06:25:54;;;;;;;25.48;8.75;;;3.10;99.90;;;;;;5113159;28;20036;-79
2021/12/05 06:28:41;;;;;;;28.38;8.30;;;3.30;99.90;;;;;;5112451;28;20414;-78
2021/12/05 06:46:57;;;;;;;33.60;7.97;;;3.10;99.90;;;;;;5111585;28;20063;-79
2021/12/05 06:49:22;;;;;;;22.80;7.55;;;3.00;99.90;;;;;;5113522;28;20104;-79
2021/12/05 06:51:48;;;;;;;31.63;7.93;;;3.00;99.90;;;;;;5112065;28;20054;-79
2021/12/05 06:54:14;;;;;;;22.38;7.50;;;3.10;99.90;;;;;;5112928;28;20051;-79
2021/12/05 06:56:40;;;;;;;29.45;7.70;;;3.10;99.90;;;;;;5112672;28;20157;-79
2021/12/05 06:59:05;;;;;;;36.90;8.65;;;3.00;99.90;;;;;;5112414;28;20135;-78
2021/12/05 07:01:31;;;;;;;31.80;8.27;;;3.00;99.90;;;;;;5111541;28;20119;-79
2021/12/05 07:04:04;;;;;;;37.80;9.68;;;3.10;99.90;;;;;;5113596;28;20090;-79
2021/12/05 07:06:31;;;;;;;31.30;8.55;;;3.20;99.90;;;;;;5113633;28;20171;-79
2021/12/05 07:09:06;;;;;;;29.58;7.97;;;3.10;99.90;;;;;;5112305;28;20475;-78
2021/12/05 07:17:04;;;;;;;24.27;7.03;;;3.10;99.90;;;;;;5112120;28;20058;-79
2021/12/05 07:19:45;;;;;;;31.02;7.90;;;3.10;99.90;;;;;;5112467;28;20058;-79
2021/12/05 07:22:23;;;;;;;28.02;8.32;;;3.10;99.90;;;;;;5110986;28;20054;-79
2021/12/05 07:24:53;;;;;;;27.58;7.30;;;3.30;99.90;;;;;;5129206;28;20108;-79
2021/12/05 07:44:15;;;;;;;22.63;7.18;;;3.30;99.90;;;;;;5090676;28;20079;-79
2021/12/05 07:46:40;;;;;;;31.02;8.23;;;3.30;99.90;;;;;;5110087;28;20048;-79
2021/12/05 07:49:10;;;;;;;24.63;7.68;;;3.30;99.90;;;;;;5132715;27;20055;-78
2021/12/05 07:51:40;;;;;;;23.60;7.53;;;3.30;99.90;;;;;;5113925;28;20482;-78
2021/12/05 07:54:12;;;;;;;34.25;7.78;;;3.30;99.90;;;;;;5115351;28;20047;-78
2021/12/05 07:56:48;;;;;;;22.92;7.95;;;3.30;99.90;;;;;;5115781;28;20062;-78
2021/12/05 08:15:32;;;;;;;24.45;8.77;;;3.40;99.90;;;;;;5116599;28;20047;-78
2021/12/05 08:17:58;;;;;;;31.83;10.02;;;3.50;99.90;;;;;;5115342;27;20046;-78
2021/12/05 08:20:30;;;;;;;23.45;8.25;;;3.50;99.90;;;;;;5115189;28;20130;-78
2021/12/05 08:22:57;;;;;;;25.65;9.65;;;3.50;99.90;;;;;;5115597;28;20056;-78
2021/12/05 08:25:26;;;;;;;23.27;9.52;;;3.50;99.90;;;;;;5113985;28;20368;-78
2021/12/05 08:27:57;;;;;;;29.80;11.30;;;3.80;99.90;;;;;;5116162;28;20109;-78
2021/12/05 08:30:33;;;;;;;29.15;9.43;;;3.50;99.90;;;;;;5115875;28;20073;-78
2021/12/05 08:33:18;;;;;;;31.95;9.65;;;3.60;99.90;;;;;;5115043;28;20050;-78
2021/12/05 09:08:34;;;;;;;36.33;11.40;;;3.60;99.90;;;;;;5114786;28;20487;-78
2021/12/05 09:51:23;;;;;;;28.75;11.60;;;4.40;99.90;;;;;;5112682;28;20567;-78
2021/12/05 10:10:14;;;;;;;27.50;11.02;;;4.60;99.90;;;;;;5114280;28;20094;-78
2021/12/05 10:15:38;;;;;;;21.10;10.88;;;4.60;99.90;;;;;;5113965;28;20483;-78
2021/12/05 10:38:03;;;;;;;32.33;10.95;;;4.70;99.90;;;;;;5105018;28;20048;-78
2021/12/05 10:40:41;;;;;;;21.02;10.27;;;4.60;99.90;;;;;;5112331;28;20067;-76
2021/12/05 10:43:18;;;;;;;23.27;10.15;;;4.70;99.90;;;;;;5113866;28;20423;-76
2021/12/05 10:46:07;;;;;;;19.48;9.45;;;4.60;99.90;;;;;;5119909;28;20040;-76
2021/12/05 10:49:14;;;;;;;29.63;10.63;;;4.60;99.90;;;;;;5113877;28;20086;-75
2021/12/05 10:51:49;;;;;;;16.38;9.13;;;4.60;99.90;;;;;;5100134;28;20059;-75
2021/12/05 10:54:26;;;;;;;22.13;9.55;;;4.70;99.90;;;;;;5113110;28;20044;-76
2021/12/05 10:57:01;;;;;;;21.33;9.68;;;4.60;99.90;;;;;;5113665;28;20046;-76
2021/12/05 10:59:37;;;;;;;18.88;9.90;;;4.60;99.90;;;;;;5112918;28;20054;-75
2021/12/05 11:02:13;;;;;;;25.90;9.40;;;4.60;99.90;;;;;;5113812;28;20051;-75
2021/12/05 11:04:47;;;;;;;21.08;9.05;;;4.60;99.90;;;;;;5117343;28;20409;-76
2021/12/05 11:07:21;;;;;;;21.30;9.27;;;4.60;99.90;;;;;;5116487;28;20043;-76
2021/12/05 11:09:49;;;;;;;23.00;8.40;;;4.60;99.90;;;;;;5117473;28;20399;-76
2021/12/05 11:12:16;;;;;;;16.73;8.20;;;4.60;99.90;;;;;;5115659;28;20501;-76
2021/12/05 11:14:46;;;;;;;18.88;8.57;;;4.70;99.90;;;;;;5116647;28;20078;-76
2021/12/05 11:17:16;;;;;;;23.83;8.60;;;4.60;99.90;;;;;;5117381;28;20137;-76
2021/12/05 11:19:51;;;;;;;18.92;8.18;;;4.60;99.90;;;;;;5118082;27;20047;-77
2021/12/05 11:22:25;;;;;;;21.80;9.73;;;4.60;99.90;;;;;;5116119;28;20082;-77
2021/12/05 11:25:10;;;;;;;16.85;8.32;;;4.60;99.90;;;;;;5117210;28;20127;-77
2021/12/05 11:27:44;;;;;;;23.13;8.77;;;4.60;99.90;;;;;;5116492;28;20096;-77
2021/12/05 11:30:16;;;;;;;23.63;9.35;;;4.60;99.90;;;;;;5117122;28;20051;-79
2021/12/05 11:32:42;;;;;;;20.05;8.80;;;4.60;99.90;;;;;;5116939;27;20414;-77
2021/12/05 11:35:18;;;;;;;20.50;8.52;;;4.70;99.90;;;;;;5116422;28;20115;-77
2021/12/05 11:38:01;;;;;;;21.73;9.23;;;4.70;99.90;;;;;;5116862;28;20058;-77
2021/12/05 11:40:42;;;;;;;17.70;7.43;;;4.70;99.90;;;;;;5116863;28;20061;-78
2021/12/05 11:43:10;;;;;;;22.65;7.18;;;4.70;99.90;;;;;;5116123;28;20049;-77
2021/12/05 11:46:01;;;;;;;20.75;8.02;;;4.70;99.90;;;;;;5115590;28;20040;-77
2021/12/05 11:48:37;;;;;;;16.98;7.40;;;4.70;99.90;;;;;;5116089;27;20051;-77
2021/12/05 11:51:35;;;;;;;12.88;7.35;;;4.70;99.90;;;;;;5096156;28;20032;-78
2021/12/05 11:54:09;;;;;;;20.42;8.48;;;4.80;99.90;;;;;;5096335;28;20036;-78
2021/12/05 11:56:34;;;;;;;23.20;8.32;;;4.70;99.90;;;;;;5095542;28;20051;-76
2021/12/05 11:59:24;;;;;;;22.15;7.95;;;4.70;99.90;;;;;;5096211;28;20036;-77
2021/12/05 12:02:02;;;;;;;15.52;8.18;;;4.70;99.90;;;;;;5096194;28;20047;-77
2021/12/05 12:04:49;;;;;;;23.77;8.20;;;4.70;99.90;;;;;;5095478;28;20403;-77
2021/12/05 12:07:24;;;;;;;16.80;7.32;;;4.80;99.90;;;;;;5101745;28;20422;-77
2021/12/05 12:09:55;;;;;;;16.85;7.85;;;4.70;99.90;;;;;;5115546;28;20047;-77
2021/12/05 12:12:21;;;;;;;18.05;7.53;;;4.80;99.90;;;;;;5116541;28;20390;-77
2021/12/05 12:14:47;;;;;;;15.52;7.00;;;4.70;99.90;;;;;;5115421;28;20077;-77
2021/12/05 12:17:16;;;;;;;13.45;7.38;;;4.80;99.90;;;;;;5115568;28;20514;-77
2021/12/05 12:19:51;;;;;;;17.60;8.13;;;4.80;99.90;;;;;;5116332;28;20072;-76
2021/12/05 12:22:21;;;;;;;14.68;6.95;;;4.80;99.90;;;;;;5114493;28;20091;-77
2021/12/05 12:24:57;;;;;;;18.67;7.00;;;4.90;99.90;;;;;;5096922;28;20135;-77
2021/12/05 12:27:23;;;;;;;13.18;6.85;;;4.80;99.90;;;;;;5116267;28;20047;-77
2021/12/05 12:29:52;;;;;;;13.85;7.20;;;4.80;99.90;;;;;;5115997;27;20081;-77
2021/12/05 12:32:24;;;;;;;16.92;7.32;;;4.80;99.90;;;;;;5115087;28;20090;-77
2021/12/05 12:35:03;;;;;;;20.83;7.53;;;4.80;99.90;;;;;;5116017;28;20577;-77
2021/12/05 12:37:29;;;;;;;18.17;7.28;;;4.80;99.90;;;;;;5115679;28;20047;-77
2021/12/05 12:39:54;;;;;;;13.30;7.60;;;4.90;99.90;;;;;;5114943;28;20394;-77
2021/12/05 12:42:28;;;;;;;18.30;7.90;;;4.90;99.90;;;;;;5115918;28;20122;-77
2021/12/05 12:45:21;;;;;;;14.07;6.93;;;5.00;99.90;;;;;;5115174;28;20394;-77
2021/12/05 12:47:52;;;;;;;15.38;7.38;;;5.10;99.90;;;;;;5115885;28;20055;-78
2021/12/05 12:50:23;;;;;;;19.75;7.22;;;5.10;99.90;;;;;;5115804;28;20075;-78
2021/12/05 12:53:17;;;;;;;16.80;6.63;;;5.10;99.90;;;;;;5114387;28;20043;-78
2021/12/05 12:56:00;;;;;;;20.20;7.18;;;5.20;99.90;;;;;;5111697;28;20431;-77
2021/12/05 12:58:49;;;;;;;18.17;6.90;;;5.20;99.90;;;;;;5114426;28;20044;-77
2021/12/05 13:12:45;;;;;;;15.95;6.60;;;5.30;99.90;;;;;;5094153;28;20102;-78
2021/12/05 13:15:17;;;;;;;11.32;6.43;;;5.30;99.90;;;;;;5094491;28;20554;-78
2021/12/05 13:17:46;;;;;;;17.23;6.70;;;5.30;99.90;;;;;;5115036;28;20069;-78
2021/12/05 13:20:21;;;;;;;12.02;6.90;;;5.30;99.90;;;;;;5114293;28;20503;-78
2021/12/05 13:23:02;;;;;;;14.60;6.80;;;5.30;99.90;;;;;;5114473;28;20059;-78
2021/12/05 13:25:31;;;;;;;19.08;6.45;;;5.30;99.90;;;;;;5114682;28;20122;-77
2021/12/05 13:27:57;;;;;;;13.50;6.25;;;5.40;99.90;;;;;;5114245;28;20039;-78
2021/12/05 13:30:33;;;;;;;9.88;6.32;;;5.30;99.90;;;;;;5114831;28;20109;-78
2021/12/05 13:33:35;;;;;;;20.23;7.07;;;5.30;99.90;;;;;;5114975;28;20052;-78
2021/12/05 13:36:32;;;;;;;12.13;6.10;;;5.30;99.90;;;;;;5051282;28;20048;-78
2021/12/05 13:38:58;;;;;;;19.13;7.35;;;5.30;99.90;;;;;;5114494;28;20114;-78
2021/12/05 13:41:24;;;;;;;12.70;6.75;;;5.30;99.90;;;;;;5112971;28;20049;-77
2021/12/05 13:44:01;;;;;;;19.27;6.55;;;5.40;99.90;;;;;;5114519;28;20130;-77
2021/12/05 13:46:36;;;;;;;15.38;6.43;;;5.40;99.90;;;;;;5114236;28;20063;-78
2021/12/05 13:49:21;;;;;;;;;;;5.40;99.90;;;;;;5114091;28;20126;-78
2021/12/05 13:51:47;;;;;;;16.08;6.55;;;5.30;99.90;;;;;;5113616;28;19924;-78
2021/12/05 13:54:25;;;;;;;10.63;6.20;;;5.30;99.90;;;;;;5114311;28;20471;-78
2021/12/05 13:57:07;;;;;;;19.98;6.93;;;5.40;99.90;;;;;;5112590;28;20448;-77
2021/12/05 13:59:33;;;;;;;12.77;6.57;;;5.40;99.90;;;;;;5114379;28;20044;-78
2021/12/05 14:01:58;;;;;;;14.10;6.60;;;5.40;99.90;;;;;;5114359;28;20127;-78
2021/12/05 14:04:27;;;;;;;13.52;6.03;;;5.40;99.90;;;;;;5113474;28;20039;-78
2021/12/05 14:06:57;;;;;;;17.42;7.35;;;5.40;99.90;;;;;;5112455;28;20449;-78
2021/12/05 14:09:32;;;;;;;9.98;6.70;;;5.50;99.90;;;;;;5113650;28;20055;-77
2021/12/05 14:12:24;;;;;;;15.65;6.95;;;5.50;99.90;;;;;;5114225;28;20047;-78
2021/12/05 14:14:59;;;;;;;12.88;6.97;;;5.40;99.90;;;;;;5114201;28;20047;-78
2021/12/05 14:17:31;;;;;;;12.65;6.63;;;5.50;99.90;;;;;;5111922;28;20060;-77
2021/12/05 14:20:20;;;;;;;12.85;6.45;;;5.40;99.90;;;;;;5114207;28;20060;-78
2021/12/05 14:22:48;;;;;;;15.63;8.63;;;5.40;99.90;;;;;;5113614;28;20062;-79
2021/12/05 14:25:19;;;;;;;17.25;6.97;;;5.40;99.90;;;;;;5113165;28;20487;-78
2021/12/05 14:27:49;;;;;;;13.18;6.93;;;5.40;99.90;;;;;;5113526;28;20422;-78
2021/12/05 14:30:19;;;;;;;11.30;6.90;;;5.40;99.90;;;;;;5112587;28;20479;-78
2021/12/05 14:32:47;;;;;;;14.43;7.63;;;5.30;99.90;;;;;;5113943;28;20089;-79
2021/12/05 14:35:18;;;;;;;16.45;7.05;;;5.30;99.90;;;;;;5113948;28;20479;-78
2021/12/05 14:37:47;;;;;;;15.18;7.40;;;5.30;99.90;;;;;;5114625;28;20039;-79
2021/12/05 14:40:21;;;;;;;14.27;7.95;;;5.30;99.90;;;;;;5120482;27;20495;-79
2021/12/05 14:42:50;;;;;;;13.02;6.65;;;5.30;99.90;;;;;;5120577;27;20043;-79
2021/12/05 14:45:22;;;;;;;20.27;7.57;;;5.20;99.90;;;;;;5119546;27;20406;-79
2021/12/05 14:47:49;;;;;;;12.52;7.00;;;5.20;99.90;;;;;;5120544;27;20177;-79
2021/12/05 14:50:20;;;;;;;12.07;6.90;;;5.20;99.90;;;;;;5120057;27;20051;-79
2021/12/05 14:52:49;;;;;;;11.00;7.20;;;5.20;99.90;;;;;;5119429;27;20570;-79
2021/12/05 14:55:18;;;;;;;11.10;6.45;;;5.20;99.90;;;;;;5120352;27;20039;-79
2021/12/05 14:57:53;;;;;;;12.15;6.70;;;5.20;99.90;;;;;;5120521;27;20062;-79
2021/12/05 15:00:30;;;;;;;12.38;6.05;;;5.20;99.90;;;;;;5119638;27;20494;-79
2021/12/05 15:03:08;;;;;;;15.63;7.47;;;5.10;99.90;;;;;;5120869;27;20050;-79
2021/12/05 15:05:36;;;;;;;20.13;7.25;;;5.10;99.90;;;;;;5119789;28;20062;-78
2021/12/05 15:08:11;;;;;;;14.13;6.13;;;5.10;99.90;;;;;;5119867;27;20042;-79
2021/12/05 15:10:39;;;;;;;8.30;6.07;;;5.10;99.90;;;;;;5120460;28;20054;-78
2021/12/05 15:13:05;;;;;;;12.05;6.18;;;5.10;99.90;;;;;;5119499;27;20535;-79
2021/12/05 15:15:31;;;;;;;12.70;7.35;;;5.00;99.90;;;;;;5120377;27;20181;-79
2021/12/05 15:17:57;;;;;;;16.73;7.38;;;5.10;99.90;;;;;;5120439;27;20055;-78
2021/12/05 15:20:27;;;;;;;14.43;6.63;;;5.00;99.90;;;;;;5119555;27;20514;-78
2021/12/05 15:23:02;;;;;;;16.45;7.70;;;5.00;99.90;;;;;;5119671;27;20056;-79
2021/12/05 15:25:29;;;;;;;17.40;7.38;;;5.00;99.90;;;;;;5120189;27;20043;-78
2021/12/05 15:27:55;;;;;;;17.10;7.97;;;5.00;99.90;;;;;;5119249;27;20048;-79
2021/12/05 15:30:22;;;;;;;17.08;7.38;;;5.00;99.90;;;;;;5120078;27;20040;-79
2021/12/05 15:32:54;;;;;;;18.58;8.63;;;5.00;99.90;;;;;;5119974;28;20048;-78
2021/12/05 15:35:22;;;;;;;17.60;8.25;;;4.90;99.90;;;;;;5119531;27;20054;-78
2021/12/05 15:38:06;;;;;;;15.40;7.85;;;4.90;99.90;;;;;;5119592;27;20081;-78
2021/12/05 15:43:10;;;;;;;18.17;8.50;;;4.90;99.90;;;;;;5492236;22;20057;-79
2021/12/05 15:45:39;;;;;;;13.50;8.10;;;4.90;99.90;;;;;;4995359;28;20137;-79
2021/12/05 15:48:05;;;;;;;25.38;8.07;;;4.90;99.90;;;;;;5004287;28;20034;-78
2021/12/05 15:50:34;;;;;;;21.67;8.68;;;4.80;99.90;;;;;;5013198;28;20064;-78
2021/12/05 15:53:12;;;;;;;15.68;7.60;;;4.90;99.90;;;;;;4997108;28;20400;-78
2021/12/05 15:55:41;;;;;;;16.15;7.07;;;4.90;99.90;;;;;;4998247;28;20500;-77
2021/12/05 15:58:12;;;;;;;15.73;8.07;;;4.80;99.90;;;;;;5015322;28;20397;-77
2021/12/05 16:00:46;;;;;;;17.23;7.70;;;4.80;99.90;;;;;;5015109;28;20048;-76
2021/12/05 16:03:24;;;;;;;16.00;7.72;;;4.80;99.90;;;;;;4998231;28;20053;-77
2021/12/05 16:06:00;;;;;;;15.00;8.27;;;4.80;99.90;;;;;;5015469;28;20160;-77
2021/12/05 16:08:31;;;;;;;15.45;9.32;;;4.80;99.90;;;;;;5013394;28;20052;-77
2021/12/05 16:10:59;;;;;;;17.20;8.43;;;4.80;99.90;;;;;;5014139;28;20052;-77
2021/12/05 16:13:38;;;;;;;21.80;8.45;;;4.80;99.90;;;;;;5015123;28;20435;-77
2021/12/05 16:16:13;;;;;;;15.25;8.10;;;4.70;99.90;;;;;;5014980;28;20500;-77
2021/12/05 16:18:44;;;;;;;15.88;8.90;;;4.80;99.90;;;;;;5014213;28;20089;-77
2021/12/05 16:21:26;;;;;;;16.02;8.25;;;4.70;99.90;;;;;;5015981;28;20481;-77
2021/12/05 16:23:54;;;;;;;11.13;7.97;;;4.70;99.90;;;;;;4979696;28;20054;-76
2021/12/05 16:26:26;;;;;;;21.63;8.93;;;4.70;99.90;;;;;;4995103;28;20053;-76
2021/12/05 16:29:00;;;;;;;16.13;7.68;;;4.70;99.90;;;;;;4995009;28;20054;-76
2021/12/05 16:31:39;;;;;;;15.77;9.18;;;4.70;99.90;;;;;;5005507;28;20061;-76
2021/12/05 16:34:18;;;;;;;19.40;9.50;;;4.60;99.90;;;;;;5014420;28;20100;-77
2021/12/05 16:36:56;;;;;;;21.92;9.48;;;4.60;99.90;;;;;;5013575;28;20053;-77
2021/12/05 16:39:33;;;;;;;17.67;10.30;;;4.60;99.90;;;;;;5008762;28;20417;-77
2021/12/05 16:42:02;;;;;;;18.55;10.13;;;4.60;99.90;;;;;;5014705;28;20077;-77
2021/12/05 16:44:31;;;;;;;24.17;11.65;;;4.60;99.90;;;;;;4997507;28;20108;-77
2021/12/05 16:47:03;;;;;;;22.15;11.30;;;4.60;99.90;;;;;;5009487;28;20097;-77
2021/12/05 16:49:41;;;;;;;28.33;13.45;;;4.60;99.90;;;;;;5000407;28;20386;-77
2021/12/05 16:52:13;;;;;;;22.45;11.32;;;4.60;99.90;;;;;;4997318;28;20042;-76
2021/12/05 16:54:47;;;;;;;31.95;12.90;;;4.60;99.90;;;;;;5014387;28;20073;-77
2021/12/05 16:57:14;;;;;;;27.98;13.00;;;4.60;99.90;;;;;;4997763;28;20095;-77
2021/12/05 16:59:48;;;;;;;30.13;12.95;;;4.60;99.90;;;;;;5013318;28;20045;-78
2021/12/05 17:02:27;;;;;;;24.23;13.00;;;4.60;99.90;;;;;;5014123;28;20050;-77
2021/12/05 17:05:06;;;;;;;30.98;14.43;;;4.70;99.90;;;;;;5014196;28;20053;-77
2021/12/05 17:07:40;;;;;;;28.80;14.30;;;4.60;99.90;;;;;;4995295;28;20128;-77
2021/12/05 17:10:28;;;;;;;25.83;14.23;;;4.70;99.90;;;;;;5014578;28;20405;-78
2021/12/05 17:13:05;;;;;;;28.00;13.38;;;4.70;99.90;;;;;;5013563;28;20054;-77
2021/12/05 17:15:31;;;;;;;29.73;14.02;;;4.60;99.90;;;;;;5010808;28;20052;-77
2021/12/05 17:18:04;;;;;;;37.58;15.88;;;4.60;99.90;;;;;;5013918;28;20057;-77
2021/12/05 17:20:37;;;;;;;32.80;15.13;;;4.60;99.90;;;;;;5011703;28;20121;-77
2021/12/05 17:23:12;;;;;;;33.13;15.50;;;4.60;99.90;;;;;;5002230;28;20042;-77
2021/12/05 17:25:41;;;;;;;30.90;16.30;;;4.60;99.90;;;;;;4978009;28;20104;-77
2021/12/05 17:28:13;;;;;;;40.03;15.20;;;4.70;99.90;;;;;;4993111;28;20078;-77
2021/12/05 17:30:55;;;;;;;28.63;15.57;;;4.70;99.90;;;;;;4995108;28;20567;-78
2021/12/05 17:33:33;;;;;;;33.97;15.77;;;4.70;99.90;;;;;;4993936;28;20058;-77
2021/12/05 17:36:13;;;;;;;27.15;16.20;;;4.70;99.90;;;;;;4993709;28;20107;-77
2021/12/05 17:38:39;;;;;;;31.95;15.68;;;4.60;99.90;;;;;;5007679;28;20100;-77
2021/12/05 17:41:05;;;;;;;37.67;16.33;;;4.70;99.90;;;;;;5011928;28;20393;-77
2021/12/05 17:43:31;;;;;;;35.85;17.05;;;4.70;99.90;;;;;;4992891;28;20085;-78
2021/12/05 17:45:56;;;;;;;33.90;17.73;;;4.60;99.90;;;;;;4992522;28;20048;-77
2021/12/05 17:48:23;;;;;;;31.75;18.73;;;4.70;99.90;;;;;;4992177;28;20057;-78
2021/12/05 17:50:53;;;;;;;26.80;18.15;;;4.60;99.90;;;;;;4993753;28;20053;-78
2021/12/05 17:53:20;;;;;;;35.10;17.73;;;4.70;99.90;;;;;;5006496;28;20168;-78
2021/12/05 17:55:48;;;;;;;31.08;17.77;;;4.70;99.90;;;;;;4994930;28;20143;-77
2021/12/05 17:58:39;;;;;;;36.53;18.73;;;4.60;99.90;;;;;;4992852;28;20086;-77
2021/12/05 18:03:52;;;;;;;31.75;19.02;;;4.60;99.90;;;;;;4991701;28;20054;-78
2021/12/05 18:06:20;;;;;;;38.22;20.35;;;4.60;99.90;;;;;;4992940;28;20393;-78
2021/12/05 18:08:47;;;;;;;35.42;19.45;;;4.60;99.90;;;;;;5009807;28;20393;-77
2021/12/05 18:11:20;;;;;;;41.53;21.00;;;4.70;99.90;;;;;;5011260;28;20041;-77
2021/12/05 18:13:51;;;;;;;40.83;21.42;;;4.60;99.90;;;;;;5000315;28;20050;-78
2021/12/05 18:16:23;;;;;;;49.95;23.02;;;4.60;99.90;;;;;;4991877;28;20129;-78
2021/12/05 18:18:51;;;;;;;36.35;20.85;;;4.60;99.90;;;;;;4992222;28;20062;-78
2021/12/05 18:21:18;;;;;;;42.17;22.38;;;4.60;99.90;;;;;;4992450;28;20057;-78
2021/12/05 18:23:45;;;;;;;42.63;22.98;;;4.60;99.90;;;;;;5008534;28;20046;-78
2021/12/05 18:26:11;;;;;;;38.22;21.83;;;4.60;99.90;;;;;;4995573;28;20046;-78
2021/12/05 18:28:38;;;;;;;42.95;24.05;;;4.60;99.90;;;;;;5013400;28;20049;-79
2021/12/05 18:31:06;;;;;;;29.90;17.52;;;4.60;99.90;;;;;;5002328;28;20085;-79
2021/12/05 18:33:33;;;;;;;33.05;20.17;;;4.60;99.90;;;;;;4976442;28;20076;-78
2021/12/05 18:36:00;;;;;;;30.15;17.92;;;4.60;99.90;;;;;;4992007;28;20100;-80
2021/12/05 18:38:26;;;;;;;28.92;19.02;;;4.60;99.90;;;;;;4998560;28;20046;-78
2021/12/05 18:40:57;;;;;;;23.58;14.68;;;4.60;99.90;;;;;;5011452;28;20481;-80
2021/12/05 18:43:27;;;;;;;26.98;16.98;;;4.50;99.90;;;;;;5011584;28;20144;-79
2021/12/05 18:45:54;;;;;;;26.17;16.98;;;4.50;99.90;;;;;;4994764;28;20049;-78
2021/12/05 18:48:20;;;;;;;24.40;15.90;;;4.50;99.90;;;;;;5012154;28;20049;-78